sensor_id;sensor_type;location;lat;lon;timestamp;P1;P2;P0
77320;PMS7003;66382;52.252;8.780;2023-03-23T00:01:51;6.00;6.00;5.33
77320;PMS7003;66382;52.252;8.780;2023-03-23T00:04:17;7.00;7.00;5.00
77320;PMS7003;66382;52.252;8.780;2023-03-23T00:06:43;7.00;7.00;5.33
77320;PMS7003;66382;52.252;8.780;2023-03-23T00:09:09;7.33;7.33;6.00
77320;PMS7003;66382;52.252;8.780;2023-03-23T00:11:36;7.00;7.00;6.00
77320;PMS7003;66382;52.252;8.780;2023-03-23T00:14:02;7.00;7.00;6.00
77320;PMS7003;66382;52.252;8.780;2023-03-23T00:16:28;8.00;8.00;7.00
77320;PMS7003;66382;52.252;8.780;2023-03-23T00:18:57;7.00;7.00;6.00
77320;PMS7003;66382;52.252;8.780;2023-03-23T00:21:24;6.33;6.33;5.67
77320;PMS7003;66382;52.252;8.780;2023-03-23T00:23:51;8.00;8.00;6.00
77320;PMS7003;66382;52.252;8.780;2023-03-23T00:26:17;6.33;6.33;5.00
77320;PMS7003;66382;52.252;8.780;2023-03-23T00:28:44;7.67;7.67;6.33
77320;PMS7003;66382;52.252;8.780;2023-03-23T00:31:10;7.00;7.00;6.67
77320;PMS7003;66382;52.252;8.780;2023-03-23T00:33:36;8.33;8.33;6.67
77320;PMS7003;66382;52.252;8.780;2023-03-23T00:36:03;6.00;6.00;6.00
77320;PMS7003;66382;52.252;8.780;2023-03-23T00:38:29;7.67;7.67;5.33
77320;PMS7003;66382;52.252;8.780;2023-03-23T00:40:56;6.33;6.33;5.33
77320;PMS7003;66382;52.252;8.780;2023-03-23T00:43:22;5.00;5.00;4.00
77320;PMS7003;66382;52.252;8.780;2023-03-23T00:45:50;7.00;7.00;5.00
77320;PMS7003;66382;52.252;8.780;2023-03-23T00:48:16;6.00;6.00;4.00
77320;PMS7003;66382;52.252;8.780;2023-03-23T00:50:42;7.67;7.67;6.33
77320;PMS7003;66382;52.252;8.780;2023-03-23T00:53:08;6.00;6.00;5.00
77320;PMS7003;66382;52.252;8.780;2023-03-23T00:55:33;6.00;6.00;5.00
77320;PMS7003;66382;52.252;8.780;2023-03-23T00:57:59;7.00;7.00;5.67
77320;PMS7003;66382;52.252;8.780;2023-03-23T01:00:25;7.33;7.33;5.00
77320;PMS7003;66382;52.252;8.780;2023-03-23T01:02:53;8.00;8.00;6.33
77320;PMS7003;66382;52.252;8.780;2023-03-23T01:05:19;7.00;7.00;6.67
77320;PMS7003;66382;52.252;8.780;2023-03-23T01:07:45;7.00;7.00;6.00
77320;PMS7003;66382;52.252;8.780;2023-03-23T01:10:12;7.00;7.00;6.00
77320;PMS7003;66382;52.252;8.780;2023-03-23T01:12:38;8.00;8.00;6.00
77320;PMS7003;66382;52.252;8.780;2023-03-23T01:15:04;6.00;6.00;5.00
77320;PMS7003;66382;52.252;8.780;2023-03-23T01:17:31;5.00;5.00;4.67
77320;PMS7003;66382;52.252;8.780;2023-03-23T01:19:58;5.33;5.33;4.00
77320;PMS7003;66382;52.252;8.780;2023-03-23T01:22:24;7.00;7.00;6.00
77320;PMS7003;66382;52.252;8.780;2023-03-23T01:24:50;6.00;6.00;5.67
77320;PMS7003;66382;52.252;8.780;2023-03-23T01:27:15;7.33;7.33;5.00
77320;PMS7003;66382;52.252;8.780;2023-03-23T01:29:41;6.00;6.00;4.00
77320;PMS7003;66382;52.252;8.780;2023-03-23T01:32:07;8.67;8.67;6.00
77320;PMS7003;66382;52.252;8.780;2023-03-23T01:34:32;5.00;5.00;5.00
77320;PMS7003;66382;52.252;8.780;2023-03-23T01:36:59;6.33;6.33;5.00
77320;PMS7003;66382;52.252;8.780;2023-03-23T01:39:25;5.67;5.67;5.00
77320;PMS7003;66382;52.252;8.780;2023-03-23T01:41:51;6.67;6.67;5.33
77320;PMS7003;66382;52.252;8.780;2023-03-23T01:47:20;5.00;5.00;5.00
77320;PMS7003;66382;52.252;8.780;2023-03-23T01:49:47;5.67;5.67;5.00
77320;PMS7003;66382;52.252;8.780;2023-03-23T01:52:18;7.67;7.67;6.00
77320;PMS7003;66382;52.252;8.780;2023-03-23T01:54:46;7.00;7.00;5.67
77320;PMS7003;66382;52.252;8.780;2023-03-23T01:57:15;6.33;6.33;5.00
77320;PMS7003;66382;52.252;8.780;2023-03-23T01:59:42;6.00;6.00;5.33
77320;PMS7003;66382;52.252;8.780;2023-03-23T02:02:10;8.67;8.67;5.00
77320;PMS7003;66382;52.252;8.780;2023-03-23T02:04:37;5.67;5.67;5.00
77320;PMS7003;66382;52.252;8.780;2023-03-23T02:07:03;7.00;7.00;6.00
77320;PMS7003;66382;52.252;8.780;2023-03-23T02:09:30;5.33;5.33;5.33
77320;PMS7003;66382;52.252;8.780;2023-03-23T02:11:56;6.00;6.00;5.00
77320;PMS7003;66382;52.252;8.780;2023-03-23T02:14:22;5.00;5.00;4.00
77320;PMS7003;66382;52.252;8.780;2023-03-23T02:16:51;7.67;7.67;6.00
77320;PMS7003;66382;52.252;8.780;2023-03-23T02:19:39;5.67;5.67;4.67
77320;PMS7003;66382;52.252;8.780;2023-03-23T02:25:25;6.67;6.67;4.67
77320;PMS7003;66382;52.252;8.780;2023-03-23T02:31:14;6.33;6.33;5.67
77320;PMS7003;66382;52.252;8.780;2023-03-23T02:33:50;6.00;6.00;6.00
77320;PMS7003;66382;52.252;8.780;2023-03-23T02:36:22;4.00;4.00;4.00
77320;PMS7003;66382;52.252;8.780;2023-03-23T02:38:56;6.00;6.00;5.00
77320;PMS7003;66382;52.252;8.780;2023-03-23T02:41:27;5.00;5.00;4.00
77320;PMS7003;66382;52.252;8.780;2023-03-23T02:43:56;5.00;5.00;4.00
77320;PMS7003;66382;52.252;8.780;2023-03-23T02:46:22;5.33;5.33;5.00
77320;PMS7003;66382;52.252;8.780;2023-03-23T02:48:51;5.00;5.00;5.00
77320;PMS7003;66382;52.252;8.780;2023-03-23T02:51:19;3.67;3.67;3.67
77320;PMS7003;66382;52.252;8.780;2023-03-23T02:53:47;5.00;5.00;5.00
77320;PMS7003;66382;52.252;8.780;2023-03-23T02:56:16;5.00;5.00;5.00
77320;PMS7003;66382;52.252;8.780;2023-03-23T02:58:43;5.00;5.00;5.00
77320;PMS7003;66382;52.252;8.780;2023-03-23T03:01:16;4.00;4.00;3.00
77320;PMS7003;66382;52.252;8.780;2023-03-23T03:03:59;3.25;3.25;3.00
77320;PMS7003;66382;52.252;8.780;2023-03-23T03:06:31;4.33;4.33;4.00
77320;PMS7003;66382;52.252;8.780;2023-03-23T03:09:02;4.00;4.00;3.00
77320;PMS7003;66382;52.252;8.780;2023-03-23T03:11:33;3.67;3.67;3.00
77320;PMS7003;66382;52.252;8.780;2023-03-23T03:14:02;3.33;3.33;2.67
77320;PMS7003;66382;52.252;8.780;2023-03-23T03:16:34;4.00;4.00;3.00
77320;PMS7003;66382;52.252;8.780;2023-03-23T03:19:06;3.33;3.33;3.33
77320;PMS7003;66382;52.252;8.780;2023-03-23T03:21:36;4.33;4.00;3.00
77320;PMS7003;66382;52.252;8.780;2023-03-23T03:24:05;5.00;5.00;4.00
77320;PMS7003;66382;52.252;8.780;2023-03-23T03:26:32;3.00;3.00;3.00
77320;PMS7003;66382;52.252;8.780;2023-03-23T03:29:00;3.67;3.67;3.67
77320;PMS7003;66382;52.252;8.780;2023-03-23T03:31:28;4.67;4.67;4.00
77320;PMS7003;66382;52.252;8.780;2023-03-23T03:33:56;3.00;3.00;3.00
77320;PMS7003;66382;52.252;8.780;2023-03-23T03:36:24;3.00;3.00;2.67
77320;PMS7003;66382;52.252;8.780;2023-03-23T03:38:53;3.00;3.00;3.00
77320;PMS7003;66382;52.252;8.780;2023-03-23T03:41:19;4.00;4.00;4.00
77320;PMS7003;66382;52.252;8.780;2023-03-23T03:43:45;3.33;3.33;3.00
77320;PMS7003;66382;52.252;8.780;2023-03-23T03:46:11;4.00;4.00;4.00
77320;PMS7003;66382;52.252;8.780;2023-03-23T03:48:37;3.00;3.00;3.00
77320;PMS7003;66382;52.252;8.780;2023-03-23T03:51:03;3.00;3.00;2.33
77320;PMS7003;66382;52.252;8.780;2023-03-23T03:53:30;3.67;3.67;3.00
77320;PMS7003;66382;52.252;8.780;2023-03-23T03:55:56;2.25;2.25;2.00
77320;PMS7003;66382;52.252;8.780;2023-03-23T03:58:22;3.67;3.67;3.33
77320;PMS7003;66382;52.252;8.780;2023-03-23T04:00:48;3.00;3.00;3.00
77320;PMS7003;66382;52.252;8.780;2023-03-23T04:03:14;3.67;3.67;3.00
77320;PMS7003;66382;52.252;8.780;2023-03-23T04:05:40;3.00;3.00;3.00
77320;PMS7003;66382;52.252;8.780;2023-03-23T04:08:06;2.67;2.67;2.67
77320;PMS7003;66382;52.252;8.780;2023-03-23T04:10:33;2.33;2.33;2.00
77320;PMS7003;66382;52.252;8.780;2023-03-23T04:12:59;3.00;3.00;2.00
77320;PMS7003;66382;52.252;8.780;2023-03-23T04:15:24;3.00;3.00;2.00
77320;PMS7003;66382;52.252;8.780;2023-03-23T04:17:50;2.33;2.33;2.33
77320;PMS7003;66382;52.252;8.780;2023-03-23T04:20:16;2.67;2.67;2.00
77320;PMS7003;66382;52.252;8.780;2023-03-23T04:22:42;3.00;3.00;3.00
77320;PMS7003;66382;52.252;8.780;2023-03-23T04:25:09;3.00;3.00;3.00
77320;PMS7003;66382;52.252;8.780;2023-03-23T04:27:38;3.00;3.00;3.00
77320;PMS7003;66382;52.252;8.780;2023-03-23T04:30:05;4.00;4.00;3.00
77320;PMS7003;66382;52.252;8.780;2023-03-23T04:32:32;4.33;4.33;3.00
77320;PMS7003;66382;52.252;8.780;2023-03-23T04:34:58;3.00;3.00;3.00
77320;PMS7003;66382;52.252;8.780;2023-03-23T04:37:24;2.00;2.00;2.00
77320;PMS7003;66382;52.252;8.780;2023-03-23T04:39:50;3.00;3.00;2.67
77320;PMS7003;66382;52.252;8.780;2023-03-23T04:42:16;3.67;3.67;3.00
77320;PMS7003;66382;52.252;8.780;2023-03-23T04:44:43;3.00;3.00;3.00
77320;PMS7003;66382;52.252;8.780;2023-03-23T04:47:08;3.00;3.00;2.67
77320;PMS7003;66382;52.252;8.780;2023-03-23T04:49:34;3.67;3.67;2.67
77320;PMS7003;66382;52.252;8.780;2023-03-23T04:52:00;3.00;3.00;2.00
77320;PMS7003;66382;52.252;8.780;2023-03-23T04:54:25;3.00;3.00;3.00
77320;PMS7003;66382;52.252;8.780;2023-03-23T04:56:51;3.00;3.00;2.33
77320;PMS7003;66382;52.252;8.780;2023-03-23T04:59:17;2.00;2.00;2.00
77320;PMS7003;66382;52.252;8.780;2023-03-23T05:01:44;2.33;2.33;2.00
77320;PMS7003;66382;52.252;8.780;2023-03-23T05:04:09;3.25;3.25;2.75
77320;PMS7003;66382;52.252;8.780;2023-03-23T05:06:35;2.00;2.00;2.00
77320;PMS7003;66382;52.252;8.780;2023-03-23T05:09:01;3.67;3.67;3.00
77320;PMS7003;66382;52.252;8.780;2023-03-23T05:11:27;3.00;3.00;3.00
77320;PMS7003;66382;52.252;8.780;2023-03-23T05:13:52;2.33;2.33;2.00
77320;PMS7003;66382;52.252;8.780;2023-03-23T05:16:18;2.00;2.00;2.00
77320;PMS7003;66382;52.252;8.780;2023-03-23T05:18:45;2.00;2.00;2.00
77320;PMS7003;66382;52.252;8.780;2023-03-23T05:21:11;2.00;2.00;2.00
77320;PMS7003;66382;52.252;8.780;2023-03-23T05:23:36;3.00;3.00;2.33
77320;PMS7003;66382;52.252;8.780;2023-03-23T05:26:02;2.67;2.67;2.00
77320;PMS7003;66382;52.252;8.780;2023-03-23T05:28:28;1.67;1.67;1.33
77320;PMS7003;66382;52.252;8.780;2023-03-23T05:30:54;2.00;2.00;2.00
77320;PMS7003;66382;52.252;8.780;2023-03-23T05:33:19;3.00;3.00;2.67
77320;PMS7003;66382;52.252;8.780;2023-03-23T05:35:47;2.33;2.33;2.00
77320;PMS7003;66382;52.252;8.780;2023-03-23T05:38:13;2.25;2.25;2.25
77320;PMS7003;66382;52.252;8.780;2023-03-23T05:40:38;3.00;3.00;3.00
77320;PMS7003;66382;52.252;8.780;2023-03-23T05:43:04;2.00;2.00;2.00
77320;PMS7003;66382;52.252;8.780;2023-03-23T05:45:30;2.00;2.00;2.00
77320;PMS7003;66382;52.252;8.780;2023-03-23T05:47:55;2.00;2.00;2.00
77320;PMS7003;66382;52.252;8.780;2023-03-23T05:50:21;3.00;3.00;2.33
77320;PMS7003;66382;52.252;8.780;2023-03-23T05:52:48;2.00;2.00;1.33
77320;PMS7003;66382;52.252;8.780;2023-03-23T05:55:14;2.50;2.50;2.00
77320;PMS7003;66382;52.252;8.780;2023-03-23T05:57:40;3.00;3.00;2.00
77320;PMS7003;66382;52.252;8.780;2023-03-23T06:00:06;3.00;3.00;2.00
77320;PMS7003;66382;52.252;8.780;2023-03-23T06:02:32;3.33;3.33;3.00
77320;PMS7003;66382;52.252;8.780;2023-03-23T06:04:58;2.67;2.67;2.00
77320;PMS7003;66382;52.252;8.780;2023-03-23T06:07:24;3.00;3.00;3.00
77320;PMS7003;66382;52.252;8.780;2023-03-23T06:09:51;3.00;3.00;2.50
77320;PMS7003;66382;52.252;8.780;2023-03-23T06:12:18;2.25;2.25;1.50
77320;PMS7003;66382;52.252;8.780;2023-03-23T06:14:44;3.00;3.00;2.67
77320;PMS7003;66382;52.252;8.780;2023-03-23T06:17:09;3.00;3.00;3.00
77320;PMS7003;66382;52.252;8.780;2023-03-23T06:19:35;1.00;1.00;0.33
77320;PMS7003;66382;52.252;8.780;2023-03-23T06:22:01;1.00;1.00;0.00
77320;PMS7003;66382;52.252;8.780;2023-03-23T06:24:26;3.00;3.00;2.33
77320;PMS7003;66382;52.252;8.780;2023-03-23T06:26:53;3.00;3.00;3.00
77320;PMS7003;66382;52.252;8.780;2023-03-23T06:29:19;4.00;4.00;3.67
77320;PMS7003;66382;52.252;8.780;2023-03-23T06:31:45;4.00;4.00;4.00
77320;PMS7003;66382;52.252;8.780;2023-03-23T06:34:14;3.00;3.00;2.75
77320;PMS7003;66382;52.252;8.780;2023-03-23T06:36:40;2.00;2.00;2.00
77320;PMS7003;66382;52.252;8.780;2023-03-23T06:39:06;3.33;3.33;3.00
77320;PMS7003;66382;52.252;8.780;2023-03-23T06:41:31;3.00;3.00;3.00
77320;PMS7003;66382;52.252;8.780;2023-03-23T06:43:59;3.75;3.75;3.50
77320;PMS7003;66382;52.252;8.780;2023-03-23T06:46:25;3.67;3.67;3.33
77320;PMS7003;66382;52.252;8.780;2023-03-23T06:48:52;3.00;3.00;3.00
77320;PMS7003;66382;52.252;8.780;2023-03-23T06:51:18;3.00;3.00;3.00
77320;PMS7003;66382;52.252;8.780;2023-03-23T06:53:44;5.00;5.00;3.33
77320;PMS7003;66382;52.252;8.780;2023-03-23T06:56:10;4.33;4.33;4.00
77320;PMS7003;66382;52.252;8.780;2023-03-23T06:58:36;1.75;1.75;1.75
77320;PMS7003;66382;52.252;8.780;2023-03-23T07:01:03;2.33;2.33;2.00
77320;PMS7003;66382;52.252;8.780;2023-03-23T07:03:29;3.00;3.00;2.75
77320;PMS7003;66382;52.252;8.780;2023-03-23T07:05:55;2.75;2.75;2.00
77320;PMS7003;66382;52.252;8.780;2023-03-23T07:08:21;2.67;2.67;2.00
77320;PMS7003;66382;52.252;8.780;2023-03-23T07:10:47;2.67;2.67;2.00
77320;PMS7003;66382;52.252;8.780;2023-03-23T07:13:13;2.00;2.00;1.67
77320;PMS7003;66382;52.252;8.780;2023-03-23T07:15:38;3.67;3.67;2.67
77320;PMS7003;66382;52.252;8.780;2023-03-23T07:18:06;4.50;4.50;3.75
77320;PMS7003;66382;52.252;8.780;2023-03-23T07:20:31;3.75;3.75;3.25
77320;PMS7003;66382;52.252;8.780;2023-03-23T07:22:57;2.00;2.00;1.33
77320;PMS7003;66382;52.252;8.780;2023-03-23T07:25:23;4.00;4.00;3.00
77320;PMS7003;66382;52.252;8.780;2023-03-23T07:27:49;2.00;2.00;1.33
77320;PMS7003;66382;52.252;8.780;2023-03-23T07:30:14;3.00;3.00;2.67
77320;PMS7003;66382;52.252;8.780;2023-03-23T07:32:40;2.67;2.67;1.67
77320;PMS7003;66382;52.252;8.780;2023-03-23T07:35:08;3.75;3.75;3.25
77320;PMS7003;66382;52.252;8.780;2023-03-23T07:37:34;2.75;2.75;2.50
77320;PMS7003;66382;52.252;8.780;2023-03-23T07:40:00;3.00;3.00;2.00
77320;PMS7003;66382;52.252;8.780;2023-03-23T07:42:26;3.00;3.00;2.67
77320;PMS7003;66382;52.252;8.780;2023-03-23T07:44:51;3.67;3.67;3.00
77320;PMS7003;66382;52.252;8.780;2023-03-23T07:47:17;1.67;1.67;1.67
77320;PMS7003;66382;52.252;8.780;2023-03-23T07:49:43;3.33;3.33;2.67
77320;PMS7003;66382;52.252;8.780;2023-03-23T07:52:10;4.00;4.00;3.00
77320;PMS7003;66382;52.252;8.780;2023-03-23T07:54:35;3.75;3.75;2.75
77320;PMS7003;66382;52.252;8.780;2023-03-23T07:57:01;3.00;3.00;2.67
77320;PMS7003;66382;52.252;8.780;2023-03-23T07:59:27;5.67;5.67;3.67
77320;PMS7003;66382;52.252;8.780;2023-03-23T08:01:53;9.33;9.33;7.67
77320;PMS7003;66382;52.252;8.780;2023-03-23T08:04:18;2.33;2.33;2.33
77320;PMS7003;66382;52.252;8.780;2023-03-23T08:06:44;4.00;4.00;3.00
77320;PMS7003;66382;52.252;8.780;2023-03-23T08:09:11;3.67;3.67;3.33
77320;PMS7003;66382;52.252;8.780;2023-03-23T08:11:37;2.75;2.75;2.50
77320;PMS7003;66382;52.252;8.780;2023-03-23T08:14:03;4.00;4.00;3.67
77320;PMS7003;66382;52.252;8.780;2023-03-23T08:16:28;3.00;3.00;2.67
77320;PMS7003;66382;52.252;8.780;2023-03-23T08:18:54;2.33;2.33;2.00
77320;PMS7003;66382;52.252;8.780;2023-03-23T08:21:20;3.67;3.67;2.67
77320;PMS7003;66382;52.252;8.780;2023-03-23T08:23:45;4.33;4.33;3.67
77320;PMS7003;66382;52.252;8.780;2023-03-23T08:26:12;4.00;4.00;3.00
77320;PMS7003;66382;52.252;8.780;2023-03-23T08:28:38;4.75;4.75;3.75
77320;PMS7003;66382;52.252;8.780;2023-03-23T08:31:05;21.67;21.67;16.67
77320;PMS7003;66382;52.252;8.780;2023-03-23T08:33:32;3.00;3.00;2.75
77320;PMS7003;66382;52.252;8.780;2023-03-23T08:35:59;3.75;3.75;2.75
77320;PMS7003;66382;52.252;8.780;2023-03-23T08:38:25;5.75;5.75;4.25
77320;PMS7003;66382;52.252;8.780;2023-03-23T08:40:51;2.00;2.00;1.00
77320;PMS7003;66382;52.252;8.780;2023-03-23T08:43:18;6.00;6.00;4.33
77320;PMS7003;66382;52.252;8.780;2023-03-23T08:45:43;3.00;3.00;2.75
77320;PMS7003;66382;52.252;8.780;2023-03-23T08:48:09;3.67;3.67;2.67
77320;PMS7003;66382;52.252;8.780;2023-03-23T08:50:35;3.67;3.67;2.67
77320;PMS7003;66382;52.252;8.780;2023-03-23T08:53:01;3.67;3.67;3.67
77320;PMS7003;66382;52.252;8.780;2023-03-23T08:55:27;3.25;3.25;2.75
77320;PMS7003;66382;52.252;8.780;2023-03-23T08:57:53;5.50;5.50;3.75
77320;PMS7003;66382;52.252;8.780;2023-03-23T09:00:21;1.33;1.33;1.33
77320;PMS7003;66382;52.252;8.780;2023-03-23T09:02:48;4.25;4.25;3.75
77320;PMS7003;66382;52.252;8.780;2023-03-23T09:05:15;4.00;4.00;3.00
77320;PMS7003;66382;52.252;8.780;2023-03-23T09:07:42;3.25;3.25;2.75
77320;PMS7003;66382;52.252;8.780;2023-03-23T09:10:10;4.00;4.00;3.50
77320;PMS7003;66382;52.252;8.780;2023-03-23T09:12:36;4.00;4.00;3.75
77320;PMS7003;66382;52.252;8.780;2023-03-23T09:15:03;5.25;5.25;4.00
77320;PMS7003;66382;52.252;8.780;2023-03-23T09:17:30;3.00;3.00;3.00
77320;PMS7003;66382;52.252;8.780;2023-03-23T09:19:56;3.00;3.00;2.00
77320;PMS7003;66382;52.252;8.780;2023-03-23T09:22:22;3.00;3.00;3.00
77320;PMS7003;66382;52.252;8.780;2023-03-23T09:24:47;4.00;4.00;2.67
77320;PMS7003;66382;52.252;8.780;2023-03-23T09:27:13;6.00;6.00;4.00
77320;PMS7003;66382;52.252;8.780;2023-03-23T09:29:39;4.67;4.67;3.33
77320;PMS7003;66382;52.252;8.780;2023-03-23T09:32:05;2.67;2.67;2.67
77320;PMS7003;66382;52.252;8.780;2023-03-23T09:34:32;2.00;2.00;2.00
77320;PMS7003;66382;52.252;8.780;2023-03-23T09:36:57;3.25;3.25;3.25
77320;PMS7003;66382;52.252;8.780;2023-03-23T09:39:23;4.00;4.00;3.00
77320;PMS7003;66382;52.252;8.780;2023-03-23T09:41:54;4.00;4.00;3.33
77320;PMS7003;66382;52.252;8.780;2023-03-23T09:44:42;4.00;4.00;3.50
77320;PMS7003;66382;52.252;8.780;2023-03-23T09:47:19;3.75;3.75;3.00
77320;PMS7003;66382;52.252;8.780;2023-03-23T09:49:52;4.50;4.50;3.25
77320;PMS7003;66382;52.252;8.780;2023-03-23T09:52:21;5.50;5.50;4.00
77320;PMS7003;66382;52.252;8.780;2023-03-23T09:54:53;2.75;2.75;2.50
77320;PMS7003;66382;52.252;8.780;2023-03-23T09:57:22;4.75;4.75;3.75
77320;PMS7003;66382;52.252;8.780;2023-03-23T09:59:55;4.25;4.25;4.00
77320;PMS7003;66382;52.252;8.780;2023-03-23T10:02:28;4.75;4.75;3.50
77320;PMS7003;66382;52.252;8.780;2023-03-23T10:05:11;3.75;3.75;2.75
77320;PMS7003;66382;52.252;8.780;2023-03-23T10:07:47;2.75;2.75;2.75
77320;PMS7003;66382;52.252;8.780;2023-03-23T10:10:13;5.00;5.00;4.00
77320;PMS7003;66382;52.252;8.780;2023-03-23T10:12:40;2.75;2.75;2.75
77320;PMS7003;66382;52.252;8.780;2023-03-23T10:15:14;4.75;4.75;3.75
77320;PMS7003;66382;52.252;8.780;2023-03-23T10:17:45;4.50;4.50;3.00
77320;PMS7003;66382;52.252;8.780;2023-03-23T10:23:11;8.50;8.50;6.25
77320;PMS7003;66382;52.252;8.780;2023-03-23T10:25:41;8.75;8.75;7.00
77320;PMS7003;66382;52.252;8.780;2023-03-23T10:28:10;6.00;6.00;4.75
77320;PMS7003;66382;52.252;8.780;2023-03-23T10:30:38;7.25;7.25;5.50
77320;PMS7003;66382;52.252;8.780;2023-03-23T10:33:08;7.00;7.00;5.00
77320;PMS7003;66382;52.252;8.780;2023-03-23T10:35:44;9.50;9.50;7.25
77320;PMS7003;66382;52.252;8.780;2023-03-23T10:38:17;9.00;9.00;6.75
77320;PMS7003;66382;52.252;8.780;2023-03-23T10:40:49;7.25;7.25;6.00
77320;PMS7003;66382;52.252;8.780;2023-03-23T10:43:18;11.50;9.25;6.00
77320;PMS7003;66382;52.252;8.780;2023-03-23T10:45:44;7.00;7.00;5.67
77320;PMS7003;66382;52.252;8.780;2023-03-23T10:48:16;5.00;5.00;4.50
77320;PMS7003;66382;52.252;8.780;2023-03-23T10:50:49;6.50;6.50;5.00
77320;PMS7003;66382;52.252;8.780;2023-03-23T10:53:19;6.50;6.50;5.25
77320;PMS7003;66382;52.252;8.780;2023-03-23T10:55:48;5.50;5.50;4.75
77320;PMS7003;66382;52.252;8.780;2023-03-23T10:58:22;5.25;5.25;4.00
77320;PMS7003;66382;52.252;8.780;2023-03-23T11:00:49;6.75;6.75;5.25
77320;PMS7003;66382;52.252;8.780;2023-03-23T11:03:27;6.67;6.67;5.00
77320;PMS7003;66382;52.252;8.780;2023-03-23T11:06:05;5.25;5.25;5.00
77320;PMS7003;66382;52.252;8.780;2023-03-23T11:08:33;10.00;10.00;8.50
77320;PMS7003;66382;52.252;8.780;2023-03-23T11:11:08;4.50;4.50;3.75
77320;PMS7003;66382;52.252;8.780;2023-03-23T11:13:38;2.00;2.00;1.75
77320;PMS7003;66382;52.252;8.780;2023-03-23T11:16:10;0.75;0.75;0.75
77320;PMS7003;66382;52.252;8.780;2023-03-23T11:18:47;0.75;0.75;0.25
77320;PMS7003;66382;52.252;8.780;2023-03-23T11:21:14;0.67;0.67;0.67
77320;PMS7003;66382;52.252;8.780;2023-03-23T11:23:41;0.00;0.00;0.00
77320;PMS7003;66382;52.252;8.780;2023-03-23T11:26:10;0.75;0.75;0.00
77320;PMS7003;66382;52.252;8.780;2023-03-23T11:28:42;1.00;1.00;0.75
77320;PMS7003;66382;52.252;8.780;2023-03-23T11:31:10;0.00;0.00;0.00
77320;PMS7003;66382;52.252;8.780;2023-03-23T11:33:36;0.67;0.67;0.67
77320;PMS7003;66382;52.252;8.780;2023-03-23T11:36:05;0.75;0.75;0.75
77320;PMS7003;66382;52.252;8.780;2023-03-23T11:38:34;2.00;2.00;2.00
77320;PMS7003;66382;52.252;8.780;2023-03-23T11:41:00;1.25;1.25;0.75
77320;PMS7003;66382;52.252;8.780;2023-03-23T11:43:26;4.00;4.00;2.67
77320;PMS7003;66382;52.252;8.780;2023-03-23T11:45:55;4.00;4.00;4.00
77320;PMS7003;66382;52.252;8.780;2023-03-23T11:48:28;1.75;1.75;1.75
77320;PMS7003;66382;52.252;8.780;2023-03-23T11:51:01;2.25;2.25;2.00
77320;PMS7003;66382;52.252;8.780;2023-03-23T11:53:35;0.00;0.00;0.00
77320;PMS7003;66382;52.252;8.780;2023-03-23T11:56:11;2.50;2.50;2.00
77320;PMS7003;66382;52.252;8.780;2023-03-23T11:58:44;0.00;0.00;0.00
77320;PMS7003;66382;52.252;8.780;2023-03-23T12:01:12;1.00;1.00;0.50
77320;PMS7003;66382;52.252;8.780;2023-03-23T12:06:48;2.00;2.00;2.00
77320;PMS7003;66382;52.252;8.780;2023-03-23T12:09:27;2.75;2.75;2.25
77320;PMS7003;66382;52.252;8.780;2023-03-23T12:12:09;2.00;2.00;2.00
77320;PMS7003;66382;52.252;8.780;2023-03-23T12:14:44;3.50;3.50;3.00
77320;PMS7003;66382;52.252;8.780;2023-03-23T12:17:19;1.25;1.25;1.25
77320;PMS7003;66382;52.252;8.780;2023-03-23T12:19:58;1.00;1.00;0.00
77320;PMS7003;66382;52.252;8.780;2023-03-23T12:22:40;0.00;0.00;0.00
77320;PMS7003;66382;52.252;8.780;2023-03-23T12:25:22;0.00;0.00;0.00
77320;PMS7003;66382;52.252;8.780;2023-03-23T12:28:05;0.00;0.00;0.00
77320;PMS7003;66382;52.252;8.780;2023-03-23T12:30:39;1.00;1.00;1.00
77320;PMS7003;66382;52.252;8.780;2023-03-23T12:33:13;2.00;2.00;2.00
77320;PMS7003;66382;52.252;8.780;2023-03-23T12:35:49;4.67;4.67;3.00
77320;PMS7003;66382;52.252;8.780;2023-03-23T12:41:28;1.75;1.75;1.00
77320;PMS7003;66382;52.252;8.780;2023-03-23T12:44:00;3.75;3.75;3.00
77320;PMS7003;66382;52.252;8.780;2023-03-23T12:46:34;3.00;3.00;3.00
77320;PMS7003;66382;52.252;8.780;2023-03-23T12:49:10;1.50;1.50;1.00
77320;PMS7003;66382;52.252;8.780;2023-03-23T12:51:42;2.50;2.50;2.50
77320;PMS7003;66382;52.252;8.780;2023-03-23T12:54:15;1.00;1.00;1.00
77320;PMS7003;66382;52.252;8.780;2023-03-23T12:56:52;4.50;4.50;3.75
77320;PMS7003;66382;52.252;8.780;2023-03-23T12:59:25;0.50;0.50;0.50
77320;PMS7003;66382;52.252;8.780;2023-03-23T13:01:56;0.00;0.00;0.00
77320;PMS7003;66382;52.252;8.780;2023-03-23T13:04:27;2.00;2.00;2.00
77320;PMS7003;66382;52.252;8.780;2023-03-23T13:06:56;2.00;2.00;1.50
77320;PMS7003;66382;52.252;8.780;2023-03-23T13:09:27;0.75;0.75;0.50
77320;PMS7003;66382;52.252;8.780;2023-03-23T13:11:59;1.25;1.25;1.25
77320;PMS7003;66382;52.252;8.780;2023-03-23T13:14:35;1.00;1.00;1.00
77320;PMS7003;66382;52.252;8.780;2023-03-23T13:17:11;1.00;1.00;1.00
77320;PMS7003;66382;52.252;8.780;2023-03-23T13:19:53;1.25;1.25;1.00
77320;PMS7003;66382;52.252;8.780;2023-03-23T13:22:31;1.00;1.00;1.00
77320;PMS7003;66382;52.252;8.780;2023-03-23T13:25:03;0.00;0.00;0.00
77320;PMS7003;66382;52.252;8.780;2023-03-23T13:27:35;0.00;0.00;0.00
77320;PMS7003;66382;52.252;8.780;2023-03-23T13:30:00;0.75;0.75;0.00
77320;PMS7003;66382;52.252;8.780;2023-03-23T13:32:30;0.00;0.00;0.00
77320;PMS7003;66382;52.252;8.780;2023-03-23T13:35:02;0.00;0.00;0.00
77320;PMS7003;66382;52.252;8.780;2023-03-23T13:37:31;1.00;1.00;1.00
77320;PMS7003;66382;52.252;8.780;2023-03-23T13:39:58;0.00;0.00;0.00
77320;PMS7003;66382;52.252;8.780;2023-03-23T13:42:48;0.00;0.00;0.00
77320;PMS7003;66382;52.252;8.780;2023-03-23T13:45:20;0.00;0.00;0.00
77320;PMS7003;66382;52.252;8.780;2023-03-23T13:47:48;0.00;0.00;0.00
77320;PMS7003;66382;52.252;8.780;2023-03-23T13:50:24;0.00;0.00;0.00
77320;PMS7003;66382;52.252;8.780;2023-03-23T13:52:53;0.00;0.00;0.00
77320;PMS7003;66382;52.252;8.780;2023-03-23T13:55:29;0.00;0.00;0.00
77320;PMS7003;66382;52.252;8.780;2023-03-23T13:58:11;0.00;0.00;0.00
77320;PMS7003;66382;52.252;8.780;2023-03-23T14:00:48;0.00;0.00;0.00
77320;PMS7003;66382;52.252;8.780;2023-03-23T14:03:17;0.00;0.00;0.00
77320;PMS7003;66382;52.252;8.780;2023-03-23T14:05:49;0.00;0.00;0.00
77320;PMS7003;66382;52.252;8.780;2023-03-23T14:08:38;0.00;0.00;0.00
77320;PMS7003;66382;52.252;8.780;2023-03-23T14:11:13;0.50;0.50;0.50
77320;PMS7003;66382;52.252;8.780;2023-03-23T14:13:43;1.00;1.00;1.00
77320;PMS7003;66382;52.252;8.780;2023-03-23T14:16:16;2.25;2.25;1.75
77320;PMS7003;66382;52.252;8.780;2023-03-23T14:18:49;2.00;2.00;1.50
77320;PMS7003;66382;52.252;8.780;2023-03-23T14:21:21;0.75;0.75;0.75
77320;PMS7003;66382;52.252;8.780;2023-03-23T14:23:51;1.25;1.25;1.25
77320;PMS7003;66382;52.252;8.780;2023-03-23T14:26:17;1.33;1.33;1.00
77320;PMS7003;66382;52.252;8.780;2023-03-23T14:28:50;1.75;1.75;1.00
77320;PMS7003;66382;52.252;8.780;2023-03-23T14:31:19;1.75;1.75;1.50
77320;PMS7003;66382;52.252;8.780;2023-03-23T14:33:47;1.50;1.50;1.25
77320;PMS7003;66382;52.252;8.780;2023-03-23T14:36:14;4.00;4.00;3.25
77320;PMS7003;66382;52.252;8.780;2023-03-23T14:38:44;2.50;2.50;2.25
77320;PMS7003;66382;52.252;8.780;2023-03-23T14:41:10;4.67;4.67;3.67
77320;PMS7003;66382;52.252;8.780;2023-03-23T14:43:37;3.75;3.75;3.25
77320;PMS7003;66382;52.252;8.780;2023-03-23T14:46:06;3.75;3.75;3.00
77320;PMS7003;66382;52.252;8.780;2023-03-23T14:48:34;3.50;3.50;3.00
77320;PMS7003;66382;52.252;8.780;2023-03-23T14:51:01;6.25;6.25;4.25